Terminal Aerodrome Forecast
Issued by NWS

Home | Current Version | Previous Version | Text Only | Print | Product List | Glossary On
Versions: 1 2 3 4 5 6 7 8 9 10 11 12 13 14 15 16 17 18 19 20 21
724
FTAK31 PAJN 292155 AAA
TAFAYA
TAF AMD
PAYA 292155Z 2922/3018 VRB04KT P6SM VCSH SCT015 OVC025
      TEMPO 2922/2924 3SM -SHRA BR BKN015
     FM300000 16004KT P6SM SCT020 OVC030
     FM300600 00000KT P6SM BKN020 OVC035
      AMD LTD TO CLD VIS AND WIND 3001/3009=

USA.gov is the U.S. government's official web portal to all federal, state and local government web resources and services.